createdAt,value
2019-05-06T00:00:35.288Z,47.409402
2019-05-06T00:01:38.307Z,47.409409
2019-05-06T00:02:43.448Z,47.409415
2019-05-06T00:03:47.293Z,47.409439
2019-05-06T00:04:51.287Z,47.409444
2019-05-06T00:05:54.466Z,47.409438
2019-05-06T00:06:58.275Z,47.409396
2019-05-06T00:08:03.897Z,47.409424
2019-05-06T00:09:07.289Z,47.409331
2019-05-06T00:10:13.392Z,47.409339
2019-05-06T00:11:16.303Z,47.409374
2019-05-06T00:12:20.286Z,47.409500
2019-05-06T00:13:24.147Z,47.409391
2019-05-06T00:14:27.266Z,47.409347
2019-05-06T00:15:31.277Z,47.409354
2019-05-06T00:16:34.906Z,47.409436
2019-05-06T00:17:38.325Z,47.409364
2019-05-06T00:18:41.306Z,47.409379
2019-05-06T00:19:45.317Z,47.409241
2019-05-06T00:20:48.248Z,47.409339
2019-05-06T00:21:51.281Z,47.409402
2019-05-06T00:22:55.275Z,47.409363
2019-05-06T00:23:58.286Z,47.409311
2019-05-06T00:25:02.297Z,47.409376
2019-05-06T00:26:05.283Z,47.409386
2019-05-06T00:27:09.302Z,47.409390
2019-05-06T00:28:13.657Z,47.409498
2019-05-06T00:29:17.317Z,47.409503
2019-05-06T00:30:21.288Z,47.409446
2019-05-06T00:31:24.285Z,47.409329
2019-05-06T00:32:28.290Z,47.409239
2019-05-06T00:33:31.292Z,47.409385
2019-05-06T00:34:35.337Z,47.409560
2019-05-06T00:35:38.294Z,47.409593
2019-05-06T00:36:43.285Z,47.409619
2019-05-06T00:37:47.295Z,47.409562
2019-05-06T00:38:50.302Z,47.409585
2019-05-06T00:39:54.320Z,47.409473
2019-05-06T00:40:57.307Z,47.409457
2019-05-06T00:42:01.324Z,47.409507
2019-05-06T00:43:04.818Z,47.409518
2019-05-06T00:44:08.317Z,47.409527
2019-05-06T00:45:13.592Z,47.409684
2019-05-06T00:46:16.285Z,47.409469
2019-05-06T00:47:20.286Z,47.409385
2019-05-06T00:48:24.435Z,47.409573
2019-05-06T00:49:28.267Z,47.409646
2019-05-06T00:50:31.295Z,47.409604
2019-05-06T00:51:34.300Z,47.409591
2019-05-06T00:52:38.308Z,47.409565
2019-05-06T00:53:41.265Z,47.409459
2019-05-06T00:54:45.267Z,47.409400
2019-05-06T00:55:48.335Z,47.409546
2019-05-06T00:56:51.280Z,47.409512
2019-05-06T00:57:54.540Z,47.409566
2019-05-06T00:58:58.283Z,47.409402
2019-05-06T01:00:04.168Z,47.409413
2019-05-06T01:01:07.303Z,47.409493
2019-05-06T01:02:11.294Z,47.409437
2019-05-06T01:03:14.298Z,47.409456
2019-05-06T01:04:18.316Z,47.409496
2019-05-06T01:05:21.285Z,47.409490
2019-05-06T01:06:24.660Z,47.409397
2019-05-06T01:07:28.297Z,47.409462
2019-05-06T01:08:31.286Z,47.409449
2019-05-06T01:09:35.317Z,47.409350
2019-05-06T01:10:38.301Z,47.409398
2019-05-06T01:11:42.316Z,47.409331
2019-05-06T01:12:47.279Z,47.409394
2019-05-06T01:13:50.310Z,47.409427
2019-05-06T01:14:54.626Z,47.409473
2019-05-06T01:15:58.275Z,47.409575
2019-05-06T01:17:01.334Z,47.409588
2019-05-06T01:18:04.362Z,47.409442
2019-05-06T01:19:08.288Z,47.409426
2019-05-06T01:20:11.261Z,47.409348
2019-05-06T01:21:14.667Z,47.409413
2019-05-06T01:22:18.306Z,47.409367
2019-05-06T01:23:23.379Z,47.409387
2019-05-06T01:24:27.265Z,47.409356
2019-05-06T01:25:30.291Z,47.409343
2019-05-06T01:26:34.339Z,47.409420
2019-05-06T01:27:37.278Z,47.409339
2019-05-06T01:28:40.296Z,47.409419
2019-05-06T01:29:44.288Z,47.409467
2019-05-06T01:30:47.311Z,47.409417
2019-05-06T01:31:51.337Z,47.409449
2019-05-06T01:32:54.488Z,47.409475
2019-05-06T01:33:58.288Z,47.409486
2019-05-06T01:35:00.271Z,47.409684
2019-05-06T01:36:04.537Z,47.409426
2019-05-06T01:37:07.320Z,47.409403
2019-05-06T01:38:10.279Z,47.409428
2019-05-06T01:39:14.298Z,47.409422
2019-05-06T01:40:17.307Z,47.409441
2019-05-06T01:41:21.265Z,47.409468
2019-05-06T01:42:24.656Z,47.409501
2019-05-06T01:43:27.286Z,47.409538
2019-05-06T01:44:30.425Z,47.409476
2019-05-06T01:45:34.874Z,47.409411
2019-05-06T01:46:38.320Z,47.409399
2019-05-06T01:47:41.300Z,47.409446
2019-05-06T01:48:45.289Z,47.409399
2019-05-06T01:49:48.288Z,47.409414
2019-05-06T01:50:51.299Z,47.409397
2019-05-06T01:51:55.294Z,47.409394
2019-05-06T01:52:58.312Z,47.409304
2019-05-06T01:54:03.752Z,47.409293
2019-05-06T01:55:07.286Z,47.409333
2019-05-06T01:56:11.304Z,47.409402
2019-05-06T01:57:14.274Z,47.409361
2019-05-06T01:58:17.350Z,47.409351
2019-05-06T01:59:21.272Z,47.409390
2019-05-06T02:00:24.294Z,47.409399
2019-05-06T02:01:28.283Z,47.409339
2019-05-06T02:02:31.303Z,47.409356
2019-05-06T02:03:35.328Z,47.409331
2019-05-06T02:04:38.292Z,47.409416
2019-05-06T02:05:41.270Z,47.409376
2019-05-06T02:06:45.290Z,47.409370
2019-05-06T02:07:48.256Z,47.409419
2019-05-06T02:08:53.994Z,47.409395
2019-05-06T02:09:57.310Z,47.409409
2019-05-06T02:11:01.305Z,47.409366
2019-05-06T02:12:04.678Z,47.409411
2019-05-06T02:13:08.325Z,47.409437
2019-05-06T02:14:13.994Z,47.409408
2019-05-06T02:15:16.291Z,47.409387
2019-05-06T02:16:20.275Z,47.409391
2019-05-06T02:17:23.875Z,47.409413
2019-05-06T02:18:27.311Z,47.409368
2019-05-06T02:19:30.269Z,47.409381
2019-05-06T02:20:33.980Z,47.409335
2019-05-06T02:21:37.270Z,47.409373
2019-05-06T02:22:40.304Z,47.409385
2019-05-06T02:23:44.298Z,47.409382
2019-05-06T02:24:47.297Z,47.409406
2019-05-06T02:25:51.261Z,47.409364
2019-05-06T02:26:54.467Z,47.409277
2019-05-06T02:27:57.304Z,47.409299
2019-05-06T02:29:04.238Z,47.409297
2019-05-06T02:30:07.282Z,47.409437
2019-05-06T02:31:11.298Z,47.409306
2019-05-06T02:32:25.528Z,47.409409
2019-05-06T02:33:24.733Z,47.409327
2019-05-06T02:34:28.357Z,47.409385
2019-05-06T02:35:31.283Z,47.409344
2019-05-06T02:36:35.303Z,47.409357
2019-05-06T02:37:38.265Z,47.409338
2019-05-06T02:38:50.472Z,47.409369
2019-05-06T02:39:53.135Z,47.409362
2019-05-06T02:40:57.262Z,47.409380
2019-05-06T02:42:00.298Z,47.409348
2019-05-06T02:43:04.274Z,47.409387
2019-05-06T02:44:10.250Z,47.409366
2019-05-06T02:45:15.324Z,47.409372
2019-05-06T02:46:19.291Z,47.409369
2019-05-06T02:47:23.012Z,47.409317
2019-05-06T02:48:27.293Z,47.409383
2019-05-06T02:49:32.795Z,47.409337
2019-05-06T02:50:36.299Z,47.409373
2019-05-06T02:51:40.308Z,47.409372
2019-05-06T02:52:44.049Z,47.409460
2019-05-06T02:53:48.295Z,47.409377
2019-05-06T02:54:53.691Z,47.409343
2019-05-06T02:55:57.317Z,47.409387
2019-05-06T02:57:00.265Z,47.409501
2019-05-06T02:58:03.338Z,47.409482
2019-05-06T02:59:07.271Z,47.409333
2019-05-06T03:00:13.085Z,47.409364
2019-05-06T03:01:17.318Z,47.409281
2019-05-06T03:02:35.593Z,47.409425
2019-05-06T03:03:28.287Z,47.409421
2019-05-06T03:04:33.189Z,47.409469
2019-05-06T03:05:36.318Z,47.409415
2019-05-06T03:06:40.306Z,47.409498
2019-05-06T03:07:43.732Z,47.409418
2019-05-06T03:08:47.289Z,47.409487
2019-05-06T03:09:53.173Z,47.409439
2019-05-06T03:10:57.337Z,47.409430
2019-05-06T03:12:03.341Z,47.409457
2019-05-06T03:13:07.299Z,47.409471
2019-05-06T03:14:13.954Z,47.409523
2019-05-06T03:15:17.331Z,47.409370
2019-05-06T03:16:23.764Z,47.409514
2019-05-06T03:17:27.296Z,47.409510
2019-05-06T03:18:32.765Z,47.409380
2019-05-06T03:19:36.285Z,47.409476
2019-05-06T03:20:39.300Z,47.409455
2019-05-06T03:21:44.817Z,47.409456
2019-05-06T03:22:48.291Z,47.409323
2019-05-06T03:23:54.290Z,47.409453
2019-05-06T03:24:57.301Z,47.409538
2019-05-06T03:26:03.732Z,47.409575
2019-05-06T03:27:09.286Z,47.409532
2019-05-06T03:28:13.258Z,47.409498
2019-05-06T03:29:17.287Z,47.409410
2019-05-06T03:30:25.065Z,47.409326
2019-05-06T03:31:28.360Z,47.409472
2019-05-06T03:32:37.568Z,47.409532
2019-05-06T03:33:56.904Z,47.409469
2019-05-06T03:35:07.810Z,47.409415
2019-05-06T03:36:06.126Z,47.409417
2019-05-06T03:37:07.204Z,47.409470
2019-05-06T03:38:13.752Z,47.409537
2019-05-06T03:39:17.282Z,47.409513
2019-05-06T03:40:22.965Z,47.409538
2019-05-06T03:41:26.664Z,47.409578
2019-05-06T03:42:33.288Z,47.409415
2019-05-06T03:43:36.279Z,47.409359
2019-05-06T03:44:40.301Z,47.409361
2019-05-06T03:45:43.292Z,47.409380
2019-05-06T03:46:47.287Z,47.409358
2019-05-06T03:47:50.306Z,47.409312
2019-05-06T03:48:54.297Z,47.409313
2019-05-06T03:49:57.281Z,47.409341
2019-05-06T03:51:00.302Z,47.409368
2019-05-06T03:52:04.300Z,47.409323
2019-05-06T03:53:07.330Z,47.409333
2019-05-06T03:54:12.784Z,47.409384
2019-05-06T03:55:16.275Z,47.409449
2019-05-06T03:56:23.821Z,47.409432
2019-05-06T03:57:27.272Z,47.409396
2019-05-06T03:58:29.342Z,47.409227
2019-05-06T03:59:33.787Z,47.409357
2019-05-06T04:00:37.284Z,47.409427
2019-05-06T04:01:42.834Z,47.409367
2019-05-06T04:02:45.424Z,47.409463
2019-05-06T04:03:53.717Z,47.409435
2019-05-06T04:04:57.281Z,47.409535
2019-05-06T04:06:00.371Z,47.409344
2019-05-06T04:07:04.286Z,47.409411
2019-05-06T04:08:07.309Z,47.409348
2019-05-06T04:09:13.221Z,47.409390
2019-05-06T04:10:16.346Z,47.409472
2019-05-06T04:11:22.667Z,47.409396
2019-05-06T04:12:25.309Z,47.409423
2019-05-06T04:13:28.341Z,47.409418
2019-05-06T04:14:33.785Z,47.409453
2019-05-06T04:15:37.272Z,47.409352
2019-05-06T04:16:44.123Z,47.409421
2019-05-06T04:17:47.281Z,47.409399
2019-05-06T04:18:53.741Z,47.409299
2019-05-06T04:19:57.344Z,47.409280
2019-05-06T04:21:03.595Z,47.409419
2019-05-06T04:22:07.296Z,47.409410
2019-05-06T04:23:12.977Z,47.409359
2019-05-06T04:24:17.290Z,47.409305
2019-05-06T04:25:23.177Z,47.409342
2019-05-06T04:26:27.296Z,47.409402
2019-05-06T04:27:33.278Z,47.409464
2019-05-06T04:28:37.308Z,47.409477
2019-05-06T04:29:42.794Z,47.409418
2019-05-06T04:30:46.317Z,47.409344
2019-05-06T04:31:50.326Z,47.409389
2019-05-06T04:32:53.567Z,47.409446
2019-05-06T04:34:09.982Z,47.409356
2019-05-06T04:35:05.300Z,47.409387
2019-05-06T04:36:08.342Z,47.409377
2019-05-06T04:37:14.463Z,47.409452
2019-05-06T04:38:18.303Z,47.409501
2019-05-06T04:39:23.387Z,47.409405
2019-05-06T04:40:27.307Z,47.409419
2019-05-06T04:41:34.135Z,47.409420
2019-05-06T04:42:37.262Z,47.409404
2019-05-06T04:43:40.319Z,47.409424
2019-05-06T04:44:44.289Z,47.409386
2019-05-06T04:45:47.289Z,47.409348
2019-05-06T04:46:54.087Z,47.409379
2019-05-06T04:47:57.297Z,47.409481
2019-05-06T04:49:03.834Z,47.409512
2019-05-06T04:50:07.286Z,47.409408
2019-05-06T04:51:13.390Z,47.409340
2019-05-06T04:52:17.351Z,47.409447
2019-05-06T04:53:26.474Z,47.409416
2019-05-06T04:54:28.283Z,47.409374
2019-05-06T04:55:33.619Z,47.409428
2019-05-06T04:56:37.315Z,47.409374
2019-05-06T04:57:40.344Z,47.409443
2019-05-06T04:58:43.289Z,47.409383
2019-05-06T04:59:47.330Z,47.409328
2019-05-06T05:00:52.810Z,47.409390
2019-05-06T05:01:57.346Z,47.409459
2019-05-06T05:02:59.319Z,47.409377
2019-05-06T05:04:03.679Z,47.409373
2019-05-06T05:05:06.366Z,47.409368
2019-05-06T05:06:09.280Z,47.409323
2019-05-06T05:07:13.310Z,47.409456
2019-05-06T05:08:16.317Z,47.409370
2019-05-06T05:09:22.865Z,47.409395
2019-05-06T05:10:26.274Z,47.409426
2019-05-06T05:11:33.091Z,47.409408
2019-05-06T05:12:36.309Z,47.409396
2019-05-06T05:13:39.306Z,47.409429
2019-05-06T05:14:43.284Z,47.409435
2019-05-06T05:15:46.306Z,47.409465
2019-05-06T05:16:50.304Z,47.409450
2019-05-06T05:17:53.324Z,47.409435
2019-05-06T05:18:57.298Z,47.409373
2019-05-06T05:20:02.107Z,47.409404
2019-05-06T05:21:05.313Z,47.409410
2019-05-06T05:22:09.276Z,47.409425
2019-05-06T05:23:12.378Z,47.409410
2019-05-06T05:24:16.303Z,47.409358
2019-05-06T05:25:19.309Z,47.409412
2019-05-06T05:26:23.302Z,47.409368
2019-05-06T05:27:26.273Z,47.409411
2019-05-06T05:28:29.346Z,47.409442
2019-05-06T05:29:33.292Z,47.409369
2019-05-06T05:30:36.340Z,47.409274
2019-05-06T05:31:40.306Z,47.409334
2019-05-06T05:32:43.334Z,47.409307
2019-05-06T05:33:47.311Z,47.409403
2019-05-06T05:34:52.094Z,47.409410
2019-05-06T05:35:54.311Z,47.409246
2019-05-06T05:36:58.283Z,47.409243
2019-05-06T05:38:03.049Z,47.409369
2019-05-06T05:39:07.325Z,47.409360
2019-05-06T05:40:10.324Z,47.409263
2019-05-06T05:41:14.293Z,47.409435
2019-05-06T05:42:17.298Z,47.409411
2019-05-06T05:43:20.292Z,47.409417
2019-05-06T05:44:24.341Z,47.409427
2019-05-06T05:45:28.317Z,47.409353
2019-05-06T05:46:33.016Z,47.409335
2019-05-06T05:47:36.322Z,47.409426
2019-05-06T05:48:39.369Z,47.409416
2019-05-06T05:49:42.338Z,47.409470
2019-05-06T05:50:45.296Z,47.409457
2019-05-06T05:51:49.303Z,47.409469
2019-05-06T05:52:52.297Z,47.409548
2019-05-06T05:53:56.320Z,47.409427
2019-05-06T05:55:02.576Z,47.409520
2019-05-06T05:56:06.275Z,47.409379
2019-05-06T05:57:09.296Z,47.409468
2019-05-06T05:58:12.931Z,47.409437
2019-05-06T05:59:16.313Z,47.409336
2019-05-06T06:00:19.331Z,47.409505
2019-05-06T06:01:23.414Z,47.409658
2019-05-06T06:02:26.267Z,47.409567
2019-05-06T06:03:32.020Z,47.409484
2019-05-06T06:04:36.282Z,47.409500
2019-05-06T06:05:39.411Z,47.409387
2019-05-06T06:06:43.337Z,47.409449
2019-05-06T06:07:46.352Z,47.409528
2019-05-06T06:08:52.122Z,47.409475
2019-05-06T06:09:56.298Z,47.409490
2019-05-06T06:11:00.341Z,47.409411
2019-05-06T06:12:03.301Z,47.409489
2019-05-06T06:13:06.285Z,47.409521
2019-05-06T06:14:12.569Z,47.409481
2019-05-06T06:15:16.326Z,47.409405
2019-05-06T06:16:20.324Z,47.409424
2019-05-06T06:17:23.357Z,47.409391
2019-05-06T06:18:27.311Z,47.409538
2019-05-06T06:19:30.317Z,47.409543
2019-05-06T06:20:33.324Z,47.409416
2019-05-06T06:21:37.333Z,47.409434
2019-05-06T06:22:42.449Z,47.409552
2019-05-06T06:23:46.309Z,47.409402
2019-05-06T06:24:49.337Z,47.409332
2019-05-06T06:25:53.328Z,47.409550
2019-05-06T06:26:56.326Z,47.409506
2019-05-06T06:28:02.689Z,47.409473
2019-05-06T06:29:05.338Z,47.409484
2019-05-06T06:30:08.307Z,47.409409
2019-05-06T06:31:12.337Z,47.409488
2019-05-06T06:32:14.329Z,47.409498
2019-05-06T06:33:18.293Z,47.409552
2019-05-06T06:34:22.287Z,47.409519
2019-05-06T06:35:25.316Z,47.409604
2019-05-06T06:36:29.319Z,47.409633
2019-05-06T06:37:33.214Z,47.409645
2019-05-06T06:38:37.299Z,47.409623
2019-05-06T06:39:42.274Z,47.409528
2019-05-06T06:40:46.322Z,47.409600
2019-05-06T06:41:49.258Z,47.409627
2019-05-06T06:42:52.519Z,47.409598
2019-05-06T06:43:56.296Z,47.409415
2019-05-06T06:44:59.304Z,47.409551
2019-05-06T06:46:03.341Z,47.410199
2019-05-06T06:47:06.303Z,47.410041
2019-05-06T06:48:12.224Z,47.409696
2019-05-06T06:49:15.290Z,47.409615
2019-05-06T06:50:18.334Z,47.409496
2019-05-06T06:51:23.552Z,47.409406
2019-05-06T06:52:27.317Z,47.409536
2019-05-06T06:53:32.687Z,47.409514
2019-05-06T06:54:36.327Z,47.409553
2019-05-06T06:55:39.373Z,47.409481
2019-05-06T06:56:42.401Z,47.409452
2019-05-06T06:57:45.328Z,47.409500
2019-05-06T06:58:49.286Z,47.409437
2019-05-06T06:59:52.484Z,47.409343
2019-05-06T07:00:56.284Z,47.409402
2019-05-06T07:01:59.326Z,47.409459
2019-05-06T07:03:03.295Z,47.409304
2019-05-06T07:04:10.444Z,47.409407
2019-05-06T07:05:24.353Z,47.409465
2019-05-06T07:06:22.441Z,47.409473
2019-05-06T07:07:39.532Z,47.409414
2019-05-06T07:08:37.357Z,47.409470
2019-05-06T07:09:41.905Z,47.409405
2019-05-06T07:10:45.314Z,47.409489
2019-05-06T07:11:48.313Z,47.409496
2019-05-06T07:12:50.442Z,47.409489
2019-05-06T07:13:54.298Z,47.409423
2019-05-06T07:14:57.295Z,47.409451
2019-05-06T07:16:02.983Z,47.409404
2019-05-06T07:17:06.300Z,47.409419
2019-05-06T07:18:13.291Z,47.409352
2019-05-06T07:19:17.326Z,47.409292
2019-05-06T07:20:22.869Z,47.409346
2019-05-06T07:21:26.338Z,47.409368
2019-05-06T07:22:29.291Z,47.409361
2019-05-06T07:23:33.336Z,47.409468
2019-05-06T07:24:36.294Z,47.409472
2019-05-06T07:25:42.829Z,47.409407
2019-05-06T07:26:46.285Z,47.409405
2019-05-06T07:27:48.355Z,47.409446
2019-05-06T07:28:52.737Z,47.409447
2019-05-06T07:29:56.300Z,47.409483
2019-05-06T07:31:14.882Z,47.409494
2019-05-06T07:32:08.276Z,47.409470
2019-05-06T07:33:13.340Z,47.409530
2019-05-06T07:34:17.291Z,47.409427
2019-05-06T07:35:22.410Z,47.409481
2019-05-06T07:36:27.338Z,47.409458
2019-05-06T07:37:32.627Z,47.409439
2019-05-06T07:38:36.290Z,47.409418
2019-05-06T07:39:38.272Z,47.409483
2019-05-06T07:40:42.294Z,47.409398
2019-05-06T07:41:46.140Z,47.409370
2019-05-06T07:42:49.289Z,47.409428
2019-05-06T07:43:53.310Z,47.409444
2019-05-06T07:44:56.337Z,47.409434
2019-05-06T07:46:02.460Z,47.409443
2019-05-06T07:47:06.313Z,47.409433
2019-05-06T07:48:12.647Z,47.409383
2019-05-06T07:49:16.343Z,47.409370
2019-05-06T07:50:19.268Z,47.409347
2019-05-06T07:51:23.932Z,47.409405
2019-05-06T07:52:27.358Z,47.409446
2019-05-06T07:53:32.069Z,47.409445
2019-05-06T07:54:35.276Z,47.409362
2019-05-06T07:55:39.309Z,47.409334
2019-05-06T07:56:42.843Z,47.409344
2019-05-06T07:57:46.333Z,47.409338
2019-05-06T07:58:52.762Z,47.409383
2019-05-06T07:59:56.278Z,47.409351
2019-05-06T08:01:02.667Z,47.409412
2019-05-06T08:02:06.298Z,47.409370
2019-05-06T08:03:10.349Z,47.409395
2019-05-06T08:04:14.342Z,47.409333
2019-05-06T08:05:17.301Z,47.409280
2019-05-06T08:06:22.647Z,47.409323
2019-05-06T08:07:26.294Z,47.409292
2019-05-06T08:08:30.353Z,47.409343
2019-05-06T08:09:33.315Z,47.409393
2019-05-06T08:10:37.333Z,47.409382
2019-05-06T08:11:42.155Z,47.409352
2019-05-06T08:12:45.337Z,47.409278
2019-05-06T08:13:49.319Z,47.409351
2019-05-06T08:14:52.548Z,47.409393
2019-05-06T08:15:56.330Z,47.409359
2019-05-06T08:16:58.298Z,47.409349
2019-05-06T08:18:03.485Z,47.409390
2019-05-06T08:19:07.357Z,47.409413
2019-05-06T08:20:12.721Z,47.409361
2019-05-06T08:21:16.337Z,47.409348
2019-05-06T08:22:19.312Z,47.409312
2019-05-06T08:23:23.314Z,47.409395
2019-05-06T08:24:26.346Z,47.409353
2019-05-06T08:25:32.811Z,47.409350
2019-05-06T08:26:36.255Z,47.409397
2019-05-06T08:27:39.307Z,47.409372
2019-05-06T08:28:44.520Z,47.409371
2019-05-06T08:29:48.362Z,47.409387
2019-05-06T08:30:53.122Z,47.409384
2019-05-06T08:31:56.315Z,47.409431
2019-05-06T08:33:02.242Z,47.409455
2019-05-06T08:34:05.303Z,47.409397
2019-05-06T08:35:09.972Z,47.409382
2019-05-06T08:36:14.790Z,47.409386
2019-05-06T08:37:18.301Z,47.409415
2019-05-06T08:38:22.651Z,47.409492
2019-05-06T08:39:26.312Z,47.409477
2019-05-06T08:40:32.089Z,47.409438
2019-05-06T08:41:35.327Z,47.409454
2019-05-06T08:42:38.277Z,47.409383
2019-05-06T08:43:42.331Z,47.409471
2019-05-06T08:44:45.301Z,47.409465
2019-05-06T08:45:49.384Z,47.409419
2019-05-06T08:46:53.254Z,47.409386
2019-05-06T08:47:57.292Z,47.409409
2019-05-06T08:49:00.839Z,47.409383
2019-05-06T08:50:05.305Z,47.409405
2019-05-06T08:51:09.333Z,47.409490
2019-05-06T08:52:12.997Z,47.409417
2019-05-06T08:53:16.308Z,47.409415
2019-05-06T08:54:19.311Z,47.409446
2019-05-06T08:55:23.342Z,47.409462
2019-05-06T08:56:26.324Z,47.409533
2019-05-06T08:57:29.332Z,47.409484
2019-05-06T08:58:33.334Z,47.409558
2019-05-06T08:59:36.341Z,47.409567
2019-05-06T09:00:40.291Z,47.409524
2019-05-06T09:01:43.322Z,47.409449
2019-05-06T09:02:47.307Z,47.409549
2019-05-06T09:04:05.046Z,47.409461
2019-05-06T09:04:58.301Z,47.409526
2019-05-06T09:06:03.168Z,47.409320
2019-05-06T09:07:07.338Z,47.409458
2019-05-06T09:08:13.634Z,47.409635
2019-05-06T09:09:17.369Z,47.409559
2019-05-06T09:10:22.695Z,47.409416
2019-05-06T09:11:26.292Z,47.409638
2019-05-06T09:12:29.320Z,47.409401
2019-05-06T09:13:33.358Z,47.409546
2019-05-06T09:14:36.321Z,47.409588
2019-05-06T09:15:40.307Z,47.409638
2019-05-06T09:16:43.928Z,47.409589
2019-05-06T09:17:48.335Z,47.409613
2019-05-06T09:18:53.341Z,47.409607
2019-05-06T09:19:56.321Z,47.409652
2019-05-06T09:21:02.819Z,47.409553
2019-05-06T09:22:06.302Z,47.409590
2019-05-06T09:23:12.269Z,47.409669
2019-05-06T09:24:16.277Z,47.409777
2019-05-06T09:25:20.324Z,47.409813
2019-05-06T09:26:23.301Z,47.409608
2019-05-06T09:27:26.299Z,47.409297
2019-05-06T09:28:30.347Z,47.409329
2019-05-06T09:29:33.284Z,47.409459
2019-05-06T09:30:37.328Z,47.409512
2019-05-06T09:31:39.327Z,47.409518
2019-05-06T09:32:43.315Z,47.409469
2019-05-06T09:33:46.320Z,47.409465
2019-05-06T09:34:49.283Z,47.409439
2019-05-06T09:35:53.306Z,47.409427
2019-05-06T09:36:56.323Z,47.409475
2019-05-06T09:38:02.209Z,47.409559
2019-05-06T09:39:05.328Z,47.409771
2019-05-06T09:40:09.310Z,47.409576
2019-05-06T09:41:13.342Z,47.409649
2019-05-06T09:42:16.325Z,47.409556
2019-05-06T09:43:22.282Z,47.409486
2019-05-06T09:44:26.333Z,47.409461
2019-05-06T09:45:29.309Z,47.409491
2019-05-06T09:46:32.320Z,47.409481
2019-05-06T09:47:37.273Z,47.409393
2019-05-06T09:48:42.325Z,47.409511
2019-05-06T09:49:46.309Z,47.409483
2019-05-06T09:50:50.419Z,47.409497
2019-05-06T09:51:53.325Z,47.409394
2019-05-06T09:52:57.275Z,47.409383
2019-05-06T09:54:03.742Z,47.409394
2019-05-06T09:55:07.335Z,47.409431
2019-05-06T09:56:12.965Z,47.409405
2019-05-06T09:57:16.314Z,47.409383
2019-05-06T09:58:22.733Z,47.409480
2019-05-06T09:59:26.327Z,47.409326
2019-05-06T10:00:32.694Z,47.409349
2019-05-06T10:01:36.404Z,47.409337
2019-05-06T10:02:42.858Z,47.409486
2019-05-06T10:03:46.333Z,47.409514
2019-05-06T10:04:49.284Z,47.409501
2019-05-06T10:05:55.375Z,47.409460
2019-05-06T10:07:00.103Z,47.409426
2019-05-06T10:08:04.336Z,47.409492
2019-05-06T10:09:07.293Z,47.409404
2019-05-06T10:10:11.316Z,47.409466
2019-05-06T10:11:13.343Z,47.409406
2019-05-06T10:12:16.339Z,47.409368
2019-05-06T10:13:20.308Z,47.409399
2019-05-06T10:14:23.565Z,47.409398
2019-05-06T10:15:27.349Z,47.409385
2019-05-06T10:16:32.394Z,47.409408
2019-05-06T10:17:36.313Z,47.409437
2019-05-06T10:18:39.332Z,47.409418
2019-05-06T10:19:42.886Z,47.409497
2019-05-06T10:20:47.283Z,47.409405
2019-05-06T10:21:50.347Z,47.409423
2019-05-06T10:22:54.323Z,47.409318
2019-05-06T10:23:57.314Z,47.409395
2019-05-06T10:25:03.716Z,47.409370
2019-05-06T10:26:07.303Z,47.409331
2019-05-06T10:27:12.089Z,47.409362
2019-05-06T10:28:16.297Z,47.409332
2019-05-06T10:29:19.312Z,47.409355
2019-05-06T10:30:23.311Z,47.409435
2019-05-06T10:31:26.311Z,47.409390
2019-05-06T10:32:30.318Z,47.409388
2019-05-06T10:33:33.317Z,47.409358
2019-05-06T10:34:36.294Z,47.409386
2019-05-06T10:35:42.685Z,47.409375
2019-05-06T10:36:46.336Z,47.409366
2019-05-06T10:37:52.481Z,47.409379
2019-05-06T10:38:56.325Z,47.409375
2019-05-06T10:40:02.861Z,47.409323
2019-05-06T10:41:07.604Z,47.409325
2019-05-06T10:42:13.211Z,47.409351
2019-05-06T10:43:17.337Z,47.409354
2019-05-06T10:44:22.376Z,47.409391
2019-05-06T10:45:26.305Z,47.409379
2019-05-06T10:46:28.345Z,47.409381
2019-05-06T10:47:33.054Z,47.409387
2019-05-06T10:48:36.336Z,47.409371
2019-05-06T10:49:39.347Z,47.409377
2019-05-06T10:50:43.283Z,47.409357
2019-05-06T10:51:46.351Z,47.409356
2019-05-06T10:52:51.798Z,47.409393
2019-05-06T10:53:55.279Z,47.409425
2019-05-06T10:54:59.329Z,47.409370
2019-05-06T10:56:02.447Z,47.409356
2019-05-06T10:57:05.351Z,47.409365
2019-05-06T10:58:09.269Z,47.409376
2019-05-06T10:59:12.982Z,47.409415
2019-05-06T11:00:16.346Z,47.409376
2019-05-06T11:01:19.320Z,47.409381
2019-05-06T11:02:23.373Z,47.409273
2019-05-06T11:03:27.670Z,47.409323
2019-05-06T11:04:33.144Z,47.409317
2019-05-06T11:05:37.327Z,47.409349
2019-05-06T11:06:42.833Z,47.409343
2019-05-06T11:07:46.317Z,47.409329
2019-05-06T11:08:48.325Z,47.409327
2019-05-06T11:09:53.301Z,47.409233
2019-05-06T11:10:56.359Z,47.409326
2019-05-06T11:11:59.278Z,47.409334
2019-05-06T11:13:03.489Z,47.409371
2019-05-06T11:14:07.330Z,47.409358
2019-05-06T11:15:12.409Z,47.409346
2019-05-06T11:16:17.035Z,47.409480
2019-05-06T11:17:23.264Z,47.409369
2019-05-06T11:18:27.326Z,47.409412
2019-05-06T11:19:30.278Z,47.409372
2019-05-06T11:20:34.333Z,47.409394
2019-05-06T11:21:37.311Z,47.409517
2019-05-06T11:22:43.461Z,47.409491
2019-05-06T11:23:47.347Z,47.409378
2019-05-06T11:24:51.336Z,47.409365
2019-05-06T11:25:54.270Z,47.409382
2019-05-06T11:26:57.292Z,47.409356
2019-05-06T11:28:02.969Z,47.409412
2019-05-06T11:29:06.292Z,47.409347
2019-05-06T11:30:10.308Z,47.409381
2019-05-06T11:31:14.137Z,47.409408
2019-05-06T11:32:21.049Z,47.409369
2019-05-06T11:33:24.325Z,47.409356
2019-05-06T11:34:27.294Z,47.409508
2019-05-06T11:35:32.517Z,47.409477
2019-05-06T11:36:37.631Z,47.409394
2019-05-06T11:37:46.974Z,47.409436
2019-05-06T11:38:52.149Z,47.409333
2019-05-06T11:39:56.322Z,47.409409
2019-05-06T11:40:59.319Z,47.409425
2019-05-06T11:42:23.959Z,47.409413
2019-05-06T11:43:11.962Z,47.409455
2019-05-06T11:44:15.364Z,47.409498
2019-05-06T11:45:19.290Z,47.409473
2019-05-06T11:46:22.850Z,47.409492
2019-05-06T11:47:26.288Z,47.409481
2019-05-06T11:48:29.287Z,47.409460
2019-05-06T11:49:32.748Z,47.409477
2019-05-06T11:50:36.284Z,47.409478
2019-05-06T11:51:39.339Z,47.409365
2019-05-06T11:52:43.674Z,47.409501
2019-05-06T11:53:47.304Z,47.409334
2019-05-06T11:54:52.821Z,47.409309
2019-05-06T11:55:56.330Z,47.409378
2019-05-06T11:56:59.294Z,47.409351
2019-05-06T11:58:02.706Z,47.409437
2019-05-06T11:59:06.301Z,47.409362
2019-05-06T12:00:12.504Z,47.409289
2019-05-06T12:01:16.306Z,47.409421
2019-05-06T12:02:20.297Z,47.409265
2019-05-06T12:03:23.433Z,47.409274
2019-05-06T12:04:28.301Z,47.409414
2019-05-06T12:05:33.012Z,47.409455
2019-05-06T12:06:36.367Z,47.409180
2019-05-06T12:07:40.340Z,47.409233
2019-05-06T12:08:43.370Z,47.409222
2019-05-06T12:09:47.325Z,47.409222
2019-05-06T12:10:52.018Z,47.409310